New Hartford, Connecticut
Current Conditions -  °F | °C
As of 4:51 AM on Wednesday 26 Nov 2014 (Local Time) from KBDL Reporting Station
Overcast Overcast  
Wind Chill: 39°   Ceiling: 11000
Heat Index: 43°   Visibility: 10mi
Dew Point: 28°   Wind: 6mph
Humidity: 56%   Direction: 350°N
Pressure: 30.19"   Gusts: NA
Location:  41.88°N, 72.98°W
Report Text: KBDL 260951Z 35005KT 10SM FEW090 BKN110 OVC160 06/M02 A3019 RMK AO2 SLP222 T00611022
Loading
Personal Weather Stations






























Interactive Weather Map New forecast layout! Learn more

10-Day Weather Forecast

Advertisements
Track Severe Weather on mobile